M/T Arcadia — SY7849 — position and weather

sailwx.info

Track history (hours):
 
Tides and Currents Weather Stations Pressure Air Temp Water Temp Dewpoint Dewpoint Depression Visibility Wind Speed Wind Dir Waves Ship Positions

M/T Arcadia

Last reported at 2014-Sep-21 08:12 UTC. Time now 2014-Sep-21 12:12 UTC.
Position N 37°55' E 023°05'.

Length 76 m; draft 3.7 m.

Type: Ship. MMSI: 240560000.

Date/timePositionNaut miles runAvg speedWind from/ knotsBaromVisibWave heightAir tempDewpointWater temp
2014-Sep-21 08:12N 37°55' E 023°05'1 0.1
2014-Sep-20 18:30N 37°55' E 023°06'0 0.0
2014-Sep-20 17:27N 37°55' E 023°06'0 0.0
2014-Sep-20 16:30N 37°55' E 023°06'0 0.0
2014-Sep-20 15:33N 37°55' E 023°06'0 0.0
2014-Sep-20 14:33N 37°55' E 023°06'0 0.0
2014-Sep-20 13:30N 37°55' E 023°06'0 0.0
2014-Sep-20 12:18N 37°55' E 023°06'8 2.3
2014-Sep-20 08:33N 37°48' E 023°13'9 9.2
2014-Sep-20 07:33N 37°40' E 023°19'9 9.3
2014-Sep-20 06:33N 37°37' E 023°30'9 8.9
2014-Sep-20 05:31N 37°29' E 023°36'3 0.1
2014-Sep-18 04:17N 37°31' E 023°33'7 8.4
2014-Sep-18 03:29N 37°38' E 023°30'8 8.0
2014-Sep-18 02:33N 37°39' E 023°21'8 7.7
2014-Sep-18 01:30N 37°46' E 023°15'11 8.2
2014-Sep-18 00:10N 37°54' E 023°06'1 0.0
2014-Sep-17 07:33N 37°55' E 023°06'9 7.1
2014-Sep-17 06:13N 37°47' E 023°13'8 8.2
2014-Sep-17 05:18N 37°41' E 023°18'6 8.2
2014-Sep-17 04:33N 37°39' E 023°26'9 8.0
2014-Sep-17 03:24N 37°33' E 023°35'44 9.1
2014-Sep-16 22:32N 36°50' E 023°45'11 9.1
2014-Sep-16 21:21N 36°39' E 023°47'  
2014-Sep-14 14:32N 36°51' E 023°44'49 8.1
2014-Sep-14 08:28N 37°38' E 023°26'8 8.4
2014-Sep-14 07:30N 37°42' E 023°17'8 8.5
2014-Sep-14 06:32N 37°49' E 023°12'7 0.3
2014-Sep-13 11:11N 37°54' E 023°06'1 0.7
2014-Sep-13 10:31N 37°55' E 023°06'7 7.7
2014-Sep-13 09:33N 37°49' E 023°12'60 8.4
2014-Sep-13 02:26N 36°55' E 023°44'9 9.7
2014-Sep-13 01:33N 36°46' E 023°46'10 9.6
2014-Sep-13 00:33N 36°37' E 023°48'9 9.3
2014-Sep-12 23:33N 36°28' E 023°50'9 9.3
2014-Sep-12 22:33N 36°19' E 023°53'6 0.2
2014-Sep-11 15:13N 36°25' E 023°50'15 8.9
2014-Sep-11 13:30N 36°39' E 023°46'  
Track history (hours):
 
Tides and Currents Weather Stations Pressure Air Temp Water Temp Dewpoint Dewpoint Depression Visibility Wind Speed Wind Dir Waves Ship Positions

M/T Arcadia

Last reported at 2014-Sep-21 08:12 UTC. Time now 2014-Sep-21 12:12 UTC.
Position N 37°55' E 023°05'.

Length 76 m; draft 3.7 m.

Type: Ship. MMSI: 240560000.

Date/timePositionNaut miles runAvg speedWind from/ knotsBaromVisibWave heightAir tempDewpointWater temp
2014-Sep-21 08:12N 37°55' E 023°05'1 0.1
2014-Sep-20 18:30N 37°55' E 023°06'0 0.0
2014-Sep-20 17:27N 37°55' E 023°06'0 0.0
2014-Sep-20 16:30N 37°55' E 023°06'0 0.0
2014-Sep-20 15:33N 37°55' E 023°06'0 0.0
2014-Sep-20 14:33N 37°55' E 023°06'0 0.0
2014-Sep-20 13:30N 37°55' E 023°06'0 0.0
2014-Sep-20 12:18N 37°55' E 023°06'8 2.3
2014-Sep-20 08:33N 37°48' E 023°13'9 9.2
2014-Sep-20 07:33N 37°40' E 023°19'9 9.3
2014-Sep-20 06:33N 37°37' E 023°30'9 8.9
2014-Sep-20 05:31N 37°29' E 023°36'3 0.1
2014-Sep-18 04:17N 37°31' E 023°33'7 8.4
2014-Sep-18 03:29N 37°38' E 023°30'8 8.0
2014-Sep-18 02:33N 37°39' E 023°21'8 7.7
2014-Sep-18 01:30N 37°46' E 023°15'11 8.2
2014-Sep-18 00:10N 37°54' E 023°06'1 0.0
2014-Sep-17 07:33N 37°55' E 023°06'9 7.1
2014-Sep-17 06:13N 37°47' E 023°13'8 8.2
2014-Sep-17 05:18N 37°41' E 023°18'6 8.2
2014-Sep-17 04:33N 37°39' E 023°26'9 8.0
2014-Sep-17 03:24N 37°33' E 023°35'44 9.1
2014-Sep-16 22:32N 36°50' E 023°45'11 9.1
2014-Sep-16 21:21N 36°39' E 023°47'  
2014-Sep-14 14:32N 36°51' E 023°44'49 8.1
2014-Sep-14 08:28N 37°38' E 023°26'8 8.4
2014-Sep-14 07:30N 37°42' E 023°17'8 8.5
2014-Sep-14 06:32N 37°49' E 023°12'7 0.3
2014-Sep-13 11:11N 37°54' E 023°06'1 0.7
2014-Sep-13 10:31N 37°55' E 023°06'7 7.7
2014-Sep-13 09:33N 37°49' E 023°12'60 8.4
2014-Sep-13 02:26N 36°55' E 023°44'9 9.7
2014-Sep-13 01:33N 36°46' E 023°46'10 9.6
2014-Sep-13 00:33N 36°37' E 023°48'9 9.3
2014-Sep-12 23:33N 36°28' E 023°50'9 9.3
2014-Sep-12 22:33N 36°19' E 023°53'6 0.2
2014-Sep-11 15:13N 36°25' E 023°50'15 8.9
2014-Sep-11 13:30N 36°39' E 023°46'  

Dump ship's entire track history